createdAt,value
2017-09-02T00:01:45.754Z,10.90
2017-09-02T00:04:13.286Z,9.10
2017-09-02T00:06:41.016Z,10.37
2017-09-02T00:09:08.678Z,9.03
2017-09-02T00:11:36.256Z,9.40
2017-09-02T00:14:04.921Z,9.33
2017-09-02T00:16:32.515Z,10.53
2017-09-02T00:19:00.309Z,9.07
2017-09-02T00:21:27.840Z,9.13
2017-09-02T00:23:55.649Z,9.27
2017-09-02T00:26:23.349Z,8.10
2017-09-02T00:28:50.920Z,8.20
2017-09-02T00:31:18.571Z,9.70
2017-09-02T00:33:46.345Z,9.50
2017-09-02T00:36:14.026Z,9.30
2017-09-02T00:38:41.606Z,9.67
2017-09-02T00:41:09.166Z,9.40
2017-09-02T00:43:36.913Z,9.83
2017-09-02T00:46:04.461Z,10.10
2017-09-02T00:48:31.980Z,9.23
2017-09-02T00:50:59.549Z,9.40
2017-09-02T00:53:27.107Z,9.30
2017-09-02T00:55:54.714Z,9.70
2017-09-02T00:58:22.278Z,9.20
2017-09-02T01:00:49.905Z,9.90
2017-09-02T01:03:18.743Z,9.30
2017-09-02T01:05:46.441Z,8.43
2017-09-02T01:08:13.995Z,9.40
2017-09-02T01:10:42.343Z,9.13
2017-09-02T01:13:09.915Z,8.57
2017-09-02T01:15:37.484Z,9.10
2017-09-02T01:18:05.028Z,8.93
2017-09-02T01:20:32.597Z,9.60
2017-09-02T01:23:00.126Z,9.00
2017-09-02T01:25:27.730Z,9.70
2017-09-02T01:27:55.585Z,8.70
2017-09-02T01:30:23.131Z,8.67
2017-09-02T01:32:50.763Z,9.93
2017-09-02T01:35:19.613Z,9.80
2017-09-02T01:37:47.297Z,9.80
2017-09-02T01:40:14.902Z,8.60
2017-09-02T01:42:42.472Z,8.67
2017-09-02T01:45:10.050Z,8.93
2017-09-02T01:47:37.777Z,9.60
2017-09-02T01:50:05.351Z,8.50
2017-09-02T01:52:33.241Z,9.20
2017-09-02T01:55:00.805Z,9.13
2017-09-02T01:57:28.354Z,9.40
2017-09-02T01:59:55.907Z,9.40
2017-09-02T02:02:24.205Z,8.80
2017-09-02T02:04:51.793Z,8.27
2017-09-02T02:07:19.413Z,9.30
2017-09-02T02:09:47.262Z,9.20
2017-09-02T02:12:15.072Z,9.40
2017-09-02T02:14:42.813Z,9.13
2017-09-02T02:17:10.685Z,9.03
2017-09-02T02:19:38.547Z,9.57
2017-09-02T02:22:06.187Z,8.67
2017-09-02T02:24:33.698Z,8.60
2017-09-02T02:27:01.488Z,8.97
2017-09-02T02:29:29.140Z,8.60
2017-09-02T02:31:57.845Z,8.87
2017-09-02T02:34:25.729Z,8.20
2017-09-02T02:36:53.257Z,8.70
2017-09-02T02:39:21.104Z,9.00
2017-09-02T02:41:48.660Z,8.93
2017-09-02T02:44:16.217Z,8.53
2017-09-02T02:46:43.729Z,10.03
2017-09-02T02:49:11.241Z,9.40
2017-09-02T02:51:38.781Z,8.80
2017-09-02T02:54:06.321Z,10.03
2017-09-02T02:56:33.865Z,9.17
2017-09-02T02:59:01.429Z,9.40
2017-09-02T03:01:29.189Z,9.13
2017-09-02T03:03:56.753Z,8.70
2017-09-02T03:06:24.331Z,10.07
2017-09-02T03:08:51.868Z,9.47
2017-09-02T03:11:19.399Z,7.97
2017-09-02T03:13:46.946Z,8.27
2017-09-02T03:16:14.513Z,9.47
2017-09-02T03:18:42.108Z,8.47
2017-09-02T03:21:09.657Z,8.53
2017-09-02T03:23:37.218Z,8.90
2017-09-02T03:26:04.777Z,10.63
2017-09-02T03:28:32.598Z,9.80
2017-09-02T03:31:00.178Z,8.83
2017-09-02T03:33:27.693Z,9.40
2017-09-02T03:35:55.283Z,9.83
2017-09-02T03:38:22.815Z,10.50
2017-09-02T03:40:50.330Z,9.40
2017-09-02T03:43:17.903Z,9.80
2017-09-02T03:45:45.531Z,9.60
2017-09-02T03:48:13.077Z,8.77
2017-09-02T03:50:41.428Z,8.10
2017-09-02T03:53:08.977Z,9.37
2017-09-02T03:55:36.977Z,9.33
2017-09-02T03:58:04.491Z,8.63
2017-09-02T04:00:32.007Z,8.77
2017-09-02T04:02:59.754Z,9.20
2017-09-02T04:05:27.310Z,9.23
2017-09-02T04:07:54.874Z,8.43
2017-09-02T04:10:22.437Z,9.13
2017-09-02T04:12:49.958Z,8.77
2017-09-02T04:15:17.734Z,9.90
2017-09-02T04:17:45.602Z,8.90
2017-09-02T04:20:13.174Z,10.27
2017-09-02T04:22:40.744Z,9.20
2017-09-02T04:25:08.279Z,8.07
2017-09-02T04:27:35.800Z,8.50
2017-09-02T04:30:04.467Z,9.37
2017-09-02T04:32:32.037Z,9.17
2017-09-02T04:34:59.621Z,10.03
2017-09-02T04:37:27.147Z,9.50
2017-09-02T04:39:54.723Z,8.87
2017-09-02T04:42:22.231Z,9.50
2017-09-02T04:44:49.779Z,8.37
2017-09-02T04:47:17.518Z,9.20
2017-09-02T04:49:45.163Z,9.17
2017-09-02T04:52:12.755Z,9.37
2017-09-02T04:54:40.339Z,10.20
2017-09-02T04:57:08.001Z,9.90
2017-09-02T04:59:35.527Z,8.70
2017-09-02T05:02:03.072Z,8.10
2017-09-02T05:04:30.629Z,8.77
2017-09-02T05:06:58.172Z,8.50
2017-09-02T05:09:25.698Z,9.20
2017-09-02T05:11:53.269Z,10.27
2017-09-02T05:14:20.812Z,9.17
2017-09-02T05:16:48.489Z,8.23
2017-09-02T05:19:16.384Z,8.40
2017-09-02T05:21:43.903Z,9.33
2017-09-02T05:24:11.463Z,8.50
2017-09-02T05:26:38.990Z,9.93
2017-09-02T05:29:06.529Z,9.63
2017-09-02T05:31:34.364Z,9.00
2017-09-02T05:34:01.873Z,8.97
2017-09-02T05:36:29.475Z,9.37
2017-09-02T05:38:57.093Z,10.23
2017-09-02T05:41:24.656Z,9.20
2017-09-02T05:43:52.221Z,8.90
2017-09-02T05:46:19.734Z,8.93
2017-09-02T05:48:47.276Z,8.13
2017-09-02T05:51:15.017Z,8.87
2017-09-02T05:53:42.599Z,9.27
2017-09-02T05:56:10.188Z,8.90
2017-09-02T05:58:37.849Z,9.50
2017-09-02T06:01:05.388Z,8.33
2017-09-02T06:03:32.974Z,8.80
2017-09-02T06:06:00.550Z,9.30
2017-09-02T06:08:28.107Z,8.53
2017-09-02T06:10:55.737Z,9.63
2017-09-02T06:13:23.282Z,9.77
2017-09-02T06:15:51.078Z,9.97
2017-09-02T06:18:18.637Z,9.33
2017-09-02T06:20:46.153Z,7.53
2017-09-02T06:23:13.759Z,10.00
2017-09-02T06:25:41.308Z,9.47
2017-09-02T06:28:08.912Z,9.60
2017-09-02T06:30:36.709Z,10.23
2017-09-02T06:33:04.250Z,8.87
2017-09-02T06:35:31.786Z,8.60
2017-09-02T06:38:01.868Z,9.80
2017-09-02T06:40:29.405Z,8.60
2017-09-02T06:42:56.955Z,9.00
2017-09-02T06:45:24.467Z,7.80
2017-09-02T06:47:51.982Z,8.10
2017-09-02T06:50:19.845Z,10.10
2017-09-02T06:52:47.482Z,9.47
2017-09-02T06:55:15.156Z,9.20
2017-09-02T06:57:42.762Z,7.30
2017-09-02T07:00:10.336Z,9.60
2017-09-02T07:02:37.916Z,9.00
2017-09-02T07:05:05.574Z,9.00
2017-09-02T07:07:33.092Z,9.57
2017-09-02T07:10:00.705Z,9.40
2017-09-02T07:12:28.634Z,9.57
2017-09-02T07:14:56.159Z,9.00
2017-09-02T07:17:23.697Z,9.10
2017-09-02T07:19:51.268Z,7.97
2017-09-02T07:22:18.840Z,8.23
2017-09-02T07:24:46.423Z,8.47
2017-09-02T07:27:14.158Z,8.97
2017-09-02T07:29:41.700Z,7.80
2017-09-02T07:32:09.217Z,9.50
2017-09-02T07:34:36.937Z,8.80
2017-09-02T07:37:04.462Z,9.27
2017-09-02T07:39:32.025Z,9.70
2017-09-02T07:41:59.547Z,9.07
2017-09-02T07:44:27.103Z,8.27
2017-09-02T07:46:54.655Z,8.13
2017-09-02T07:49:22.268Z,8.53
2017-09-02T07:51:49.960Z,9.70
2017-09-02T07:54:17.541Z,8.30
2017-09-02T07:56:45.289Z,8.60
2017-09-02T07:59:12.862Z,8.10
2017-09-02T08:01:40.411Z,9.50
2017-09-02T08:04:08.051Z,8.40
2017-09-02T08:06:35.550Z,8.77
2017-09-02T08:09:03.122Z,8.30
2017-09-02T08:11:30.702Z,7.80
2017-09-02T08:13:58.972Z,8.87
2017-09-02T08:16:26.563Z,8.43
2017-09-02T08:18:54.117Z,9.30
2017-09-02T08:21:21.703Z,9.47
2017-09-02T08:23:49.269Z,9.30
2017-09-02T08:26:18.509Z,8.43
2017-09-02T08:28:46.114Z,9.83
2017-09-02T08:31:13.701Z,9.43
2017-09-02T08:33:41.558Z,9.60
2017-09-02T08:36:09.424Z,8.40
2017-09-02T08:38:37.071Z,10.20
2017-09-02T08:41:04.600Z,9.10
2017-09-02T08:43:32.176Z,9.83
2017-09-02T08:45:59.877Z,8.67
2017-09-02T08:48:27.380Z,10.47
2017-09-02T08:50:54.987Z,9.70
2017-09-02T08:53:22.554Z,9.93
2017-09-02T08:55:50.100Z,9.00
2017-09-02T08:58:18.617Z,10.30
2017-09-02T09:00:46.492Z,10.00
2017-09-02T09:03:14.373Z,7.70
2017-09-02T09:05:41.911Z,10.03
2017-09-02T09:08:09.446Z,10.00
2017-09-02T09:10:37.103Z,10.30
2017-09-02T09:13:04.664Z,10.00
2017-09-02T09:15:32.337Z,9.27
2017-09-02T09:17:59.942Z,9.50
2017-09-02T09:20:27.460Z,9.43
2017-09-02T09:22:54.974Z,9.90
2017-09-02T09:25:22.513Z,9.53
2017-09-02T09:27:50.082Z,9.30
2017-09-02T09:30:18.124Z,9.30
2017-09-02T09:32:45.651Z,8.70
2017-09-02T09:35:13.400Z,9.70
2017-09-02T09:37:40.999Z,9.10
2017-09-02T09:40:08.522Z,9.97
2017-09-02T09:42:36.103Z,9.73
2017-09-02T09:45:03.629Z,10.40
2017-09-02T09:47:31.178Z,9.43
2017-09-02T09:49:58.758Z,10.23
2017-09-02T09:52:26.336Z,10.43
2017-09-02T09:54:53.921Z,11.30
2017-09-02T09:57:21.434Z,8.90
2017-09-02T09:59:48.949Z,10.13
2017-09-02T10:02:17.190Z,11.40
2017-09-02T10:04:44.858Z,9.57
2017-09-02T10:07:12.376Z,10.27
2017-09-02T10:09:39.968Z,9.77
2017-09-02T10:12:07.513Z,10.03
2017-09-02T10:14:35.066Z,11.17
2017-09-02T10:17:02.853Z,10.27
2017-09-02T10:19:30.381Z,10.73
2017-09-02T10:21:57.923Z,11.23
2017-09-02T10:24:25.493Z,10.83
2017-09-02T10:26:53.153Z,10.53
2017-09-02T10:29:20.974Z,9.40
2017-09-02T10:31:48.531Z,9.07
2017-09-02T10:34:16.143Z,11.20
2017-09-02T10:36:43.714Z,9.80
2017-09-02T10:39:11.242Z,9.70
2017-09-02T10:41:38.826Z,10.13
2017-09-02T10:44:06.401Z,9.87
2017-09-02T10:46:33.940Z,10.13
2017-09-02T10:49:01.520Z,10.50
2017-09-02T10:51:29.111Z,10.50
2017-09-02T10:53:56.990Z,10.03
2017-09-02T10:56:24.606Z,9.17
2017-09-02T10:58:52.188Z,10.60
2017-09-02T11:01:19.792Z,10.80
2017-09-02T11:03:48.213Z,9.83
2017-09-02T11:06:16.851Z,11.63
2017-09-02T11:08:45.243Z,10.77
2017-09-02T11:11:13.499Z,10.57
2017-09-02T11:13:41.298Z,10.87
2017-09-02T11:16:08.968Z,11.37
2017-09-02T11:18:40.058Z,10.47
2017-09-02T11:21:07.641Z,10.20
2017-09-02T11:23:35.215Z,9.90
2017-09-02T11:26:02.774Z,9.93
2017-09-02T11:28:30.337Z,10.23
2017-09-02T11:30:57.862Z,10.20
2017-09-02T11:33:25.470Z,9.93
2017-09-02T11:35:53.035Z,12.03
2017-09-02T11:38:20.553Z,10.43
2017-09-02T11:40:48.325Z,11.20
2017-09-02T11:43:15.906Z,10.30
2017-09-02T11:45:43.544Z,11.33
2017-09-02T11:48:11.252Z,11.03
2017-09-02T11:50:38.800Z,9.93
2017-09-02T11:53:09.099Z,10.87
2017-09-02T11:55:36.735Z,10.53
2017-09-02T11:58:04.278Z,10.33
2017-09-02T12:00:31.834Z,10.17
2017-09-02T12:02:59.374Z,10.33
2017-09-02T12:05:27.341Z,11.17
2017-09-02T12:07:54.958Z,11.27
2017-09-02T12:10:22.574Z,10.63
2017-09-02T12:12:50.143Z,10.17
2017-09-02T12:15:18.441Z,10.57
2017-09-02T12:17:46.436Z,10.47
2017-09-02T12:20:13.946Z,9.90
2017-09-02T12:22:41.823Z,10.40
2017-09-02T12:25:09.405Z,9.80
2017-09-02T12:27:36.968Z,9.90
2017-09-02T12:30:04.554Z,10.43
2017-09-02T12:32:32.153Z,9.53
2017-09-02T12:34:59.753Z,10.77
2017-09-02T12:37:29.164Z,10.37
2017-09-02T12:39:56.875Z,9.17
2017-09-02T12:42:24.445Z,10.90
2017-09-02T12:44:52.191Z,10.10
2017-09-02T12:47:19.850Z,11.50
2017-09-02T12:49:47.794Z,9.97
2017-09-02T12:52:15.386Z,10.40
2017-09-02T12:54:43.053Z,10.23
2017-09-02T12:57:11.014Z,10.43
2017-09-02T12:59:38.649Z,11.07
2017-09-02T13:02:06.758Z,9.90
2017-09-02T13:04:36.997Z,10.40
2017-09-02T13:07:04.570Z,10.67
2017-09-02T13:09:32.136Z,9.87
2017-09-02T13:11:59.729Z,11.30
2017-09-02T13:14:27.441Z,8.63
2017-09-02T13:16:57.981Z,9.80
2017-09-02T13:19:30.875Z,10.70
2017-09-02T13:21:58.429Z,9.53
2017-09-02T13:24:26.065Z,9.73
2017-09-02T13:26:53.663Z,9.60
2017-09-02T13:29:21.349Z,9.73
2017-09-02T13:31:51.382Z,10.50
2017-09-02T13:34:19.210Z,11.10
2017-09-02T13:36:47.929Z,10.20
2017-09-02T13:39:15.513Z,10.73
2017-09-02T13:41:43.079Z,9.73
2017-09-02T13:44:10.660Z,10.30
2017-09-02T13:46:38.273Z,10.50
2017-09-02T13:49:06.510Z,10.77
2017-09-02T13:51:34.111Z,10.23
2017-09-02T13:54:01.669Z,10.03
2017-09-02T13:56:29.306Z,10.33
2017-09-02T13:58:56.977Z,10.37
2017-09-02T14:01:24.553Z,9.60
2017-09-02T14:03:52.253Z,10.27
2017-09-02T14:06:19.780Z,11.13
2017-09-02T14:08:47.484Z,10.30
2017-09-02T14:11:16.279Z,10.20
2017-09-02T14:13:44.177Z,10.90
2017-09-02T14:16:11.745Z,10.70
2017-09-02T14:18:39.316Z,11.37
2017-09-02T14:21:06.899Z,11.03
2017-09-02T14:23:34.410Z,9.70
2017-09-02T14:26:01.945Z,11.87
2017-09-02T14:28:29.536Z,9.50
2017-09-02T14:30:57.118Z,10.03
2017-09-02T14:33:24.671Z,10.33
2017-09-02T14:35:52.285Z,9.13
2017-09-02T14:38:19.798Z,10.00
2017-09-02T14:40:47.423Z,11.83
2017-09-02T14:43:15.013Z,10.07
2017-09-02T14:45:42.530Z,9.40
2017-09-02T14:48:10.108Z,10.10
2017-09-02T14:50:37.637Z,10.30
2017-09-02T14:53:05.322Z,12.03
2017-09-02T14:55:32.856Z,9.80
2017-09-02T15:00:34.173Z,11.37
2017-09-02T15:03:01.747Z,11.00
2017-09-02T15:05:29.309Z,10.20
2017-09-02T15:07:56.841Z,11.40
2017-09-02T15:10:24.398Z,11.57
2017-09-02T15:12:52.057Z,11.33
2017-09-02T15:15:19.605Z,10.20
2017-09-02T15:17:47.248Z,10.33
2017-09-02T15:20:14.849Z,9.80
2017-09-02T15:22:42.417Z,10.97
2017-09-02T15:25:10.176Z,10.27
2017-09-02T15:27:37.731Z,11.73
2017-09-02T15:30:05.385Z,9.87
2017-09-02T15:32:33.077Z,11.00
2017-09-02T15:35:00.650Z,10.90
2017-09-02T15:37:28.172Z,11.80
2017-09-02T15:39:55.693Z,11.00
2017-09-02T15:42:23.245Z,9.43
2017-09-02T15:44:50.797Z,10.60
2017-09-02T15:47:18.360Z,10.57
2017-09-02T15:49:45.892Z,10.30
2017-09-02T15:52:13.402Z,10.47
2017-09-02T15:54:40.986Z,11.70
2017-09-02T15:57:08.512Z,11.23
2017-09-02T15:59:36.261Z,10.93
2017-09-02T16:02:03.820Z,11.73
2017-09-02T16:04:31.329Z,9.83
2017-09-02T16:06:58.975Z,10.80
2017-09-02T16:09:26.535Z,11.60
2017-09-02T16:11:54.070Z,11.03
2017-09-02T16:14:21.651Z,10.63
2017-09-02T16:16:49.183Z,12.27
2017-09-02T16:19:16.829Z,12.30
2017-09-02T16:21:44.378Z,10.63
2017-09-02T16:24:11.898Z,12.40
2017-09-02T16:26:39.446Z,10.73
2017-09-02T16:29:07.042Z,11.40
2017-09-02T16:31:34.699Z,11.50
2017-09-02T16:34:02.300Z,11.60
2017-09-02T16:36:29.949Z,11.50
2017-09-02T16:38:57.489Z,12.37
2017-09-02T16:41:25.084Z,11.47
2017-09-02T16:43:52.609Z,10.90
2017-09-02T16:46:20.185Z,11.13
2017-09-02T16:48:47.719Z,10.13
2017-09-02T16:51:15.299Z,11.37
2017-09-02T16:53:42.912Z,11.30
2017-09-02T16:56:10.505Z,11.40
2017-09-02T16:58:38.054Z,11.73
2017-09-02T17:01:05.691Z,10.70
2017-09-02T17:03:33.249Z,11.70
2017-09-02T17:06:00.974Z,11.90
2017-09-02T17:08:28.501Z,10.90
2017-09-02T17:10:56.036Z,11.00
2017-09-02T17:13:23.627Z,12.30
2017-09-02T17:15:51.164Z,12.40
2017-09-02T17:18:18.690Z,11.37
2017-09-02T17:20:46.274Z,9.60
2017-09-02T17:23:13.829Z,11.23
2017-09-02T17:25:41.475Z,11.20
2017-09-02T17:28:09.001Z,11.17
2017-09-02T17:30:36.633Z,12.17
2017-09-02T17:33:04.218Z,12.10
2017-09-02T17:35:31.795Z,11.37
2017-09-02T17:37:59.325Z,10.53
2017-09-02T17:40:26.853Z,11.20
2017-09-02T17:42:54.413Z,11.97
2017-09-02T17:45:22.009Z,10.17
2017-09-02T17:47:49.524Z,10.43
2017-09-02T17:50:17.201Z,11.60
2017-09-02T17:52:44.846Z,10.90
2017-09-02T17:55:12.417Z,11.07
2017-09-02T17:57:39.977Z,10.63
2017-09-02T18:00:07.581Z,10.33
2017-09-02T18:02:35.178Z,10.30
2017-09-02T18:05:02.700Z,11.37
2017-09-02T18:07:30.261Z,10.70
2017-09-02T18:09:57.822Z,11.60
2017-09-02T18:12:25.371Z,11.40
2017-09-02T18:14:52.962Z,10.30
2017-09-02T18:17:20.497Z,11.03
2017-09-02T18:19:48.021Z,11.33
2017-09-02T18:22:15.589Z,10.50
2017-09-02T18:24:43.284Z,11.10
2017-09-02T18:27:10.812Z,10.53
2017-09-02T18:29:38.362Z,10.87
2017-09-02T18:32:05.915Z,10.67
2017-09-02T18:34:33.467Z,11.20
2017-09-02T18:37:01.009Z,11.07
2017-09-02T18:39:28.578Z,10.27
2017-09-02T18:41:56.093Z,10.70
2017-09-02T18:44:23.606Z,10.33
2017-09-02T18:46:51.179Z,10.20
2017-09-02T18:49:18.720Z,10.20
2017-09-02T18:51:46.317Z,10.70
2017-09-02T18:54:13.949Z,11.43
2017-09-02T18:56:41.473Z,10.07
2017-09-02T18:59:09.023Z,9.93
2017-09-02T19:01:36.586Z,11.03
2017-09-02T19:04:04.134Z,9.93
2017-09-02T19:06:31.657Z,10.03
2017-09-02T19:08:59.593Z,10.03
2017-09-02T19:11:27.105Z,9.93
2017-09-02T19:13:54.633Z,9.70
2017-09-02T19:16:22.205Z,9.40
2017-09-02T19:18:49.771Z,10.93
2017-09-02T19:21:17.405Z,10.23
2017-09-02T19:23:45.068Z,9.80
2017-09-02T19:26:12.577Z,9.87
2017-09-02T19:28:40.086Z,9.83
2017-09-02T19:31:07.660Z,9.97
2017-09-02T19:33:35.242Z,10.87
2017-09-02T19:36:02.869Z,10.27
2017-09-02T19:38:30.441Z,9.83
2017-09-02T19:40:58.023Z,10.33
2017-09-02T19:43:25.619Z,10.00
2017-09-02T19:45:53.213Z,11.37
2017-09-02T19:48:20.758Z,10.20
2017-09-02T19:50:48.295Z,10.20
2017-09-02T19:53:16.607Z,10.00
2017-09-02T19:55:44.134Z,11.20
2017-09-02T19:58:11.818Z,10.30
2017-09-02T20:00:39.448Z,10.60
2017-09-02T20:03:07.062Z,9.80
2017-09-02T20:05:34.585Z,10.17
2017-09-02T20:08:03.934Z,10.27
2017-09-02T20:10:31.482Z,9.20
2017-09-02T20:12:59.057Z,8.37
2017-09-02T20:15:26.573Z,9.57
2017-09-02T20:17:54.076Z,9.43
2017-09-02T20:20:21.702Z,9.33
2017-09-02T20:22:49.205Z,10.17
2017-09-02T20:25:17.043Z,9.93
2017-09-02T20:27:44.718Z,10.23
2017-09-02T20:30:12.252Z,10.13
2017-09-02T20:32:39.808Z,10.03
2017-09-02T20:35:07.686Z,10.17
2017-09-02T20:37:35.202Z,8.80
2017-09-02T20:40:03.654Z,10.20
2017-09-02T20:42:31.189Z,10.53
2017-09-02T20:44:58.853Z,8.40
2017-09-02T20:47:26.387Z,10.13
2017-09-02T20:49:53.924Z,9.90
2017-09-02T20:52:22.551Z,8.67
2017-09-02T20:54:50.057Z,7.97
2017-09-02T20:57:17.773Z,9.10
2017-09-02T20:59:45.325Z,10.40
2017-09-02T21:02:12.959Z,9.43
2017-09-02T21:04:40.501Z,8.87
2017-09-02T21:07:08.065Z,8.53
2017-09-02T21:09:35.750Z,9.10
2017-09-02T21:12:03.262Z,9.63
2017-09-02T21:14:30.833Z,8.27
2017-09-02T21:16:58.503Z,8.50
2017-09-02T21:19:26.108Z,9.40
2017-09-02T21:21:53.649Z,10.07
2017-09-02T21:24:21.201Z,8.83
2017-09-02T21:26:49.298Z,8.77
2017-09-02T21:29:17.053Z,8.90
2017-09-02T21:31:44.875Z,8.97
2017-09-02T21:34:12.446Z,10.00
2017-09-02T21:36:39.962Z,8.77
2017-09-02T21:39:07.946Z,9.20
2017-09-02T21:41:35.504Z,8.70
2017-09-02T21:44:03.277Z,9.50
2017-09-02T21:46:30.802Z,8.73
2017-09-02T21:48:58.371Z,9.20
2017-09-02T21:51:25.924Z,9.23
2017-09-02T21:53:53.448Z,10.40
2017-09-02T21:56:20.954Z,8.77
2017-09-02T21:58:48.553Z,9.10
2017-09-02T22:01:16.104Z,9.00
2017-09-02T22:03:43.681Z,8.10
2017-09-02T22:06:11.196Z,8.10
2017-09-02T22:08:38.704Z,9.10
2017-09-02T22:11:06.363Z,9.30
2017-09-02T22:13:33.934Z,9.23
2017-09-02T22:16:01.440Z,9.23
2017-09-02T22:18:28.957Z,8.70
2017-09-02T22:20:56.548Z,8.33
2017-09-02T22:23:24.072Z,9.37
2017-09-02T22:25:51.622Z,8.20
2017-09-02T22:28:19.255Z,9.27
2017-09-02T22:30:47.080Z,9.30
2017-09-02T22:33:14.868Z,8.97
2017-09-02T22:35:42.391Z,8.60
2017-09-02T22:38:09.905Z,8.77
2017-09-02T22:40:37.533Z,7.50
2017-09-02T22:43:05.085Z,8.73
2017-09-02T22:45:33.005Z,9.10
2017-09-02T22:48:00.597Z,9.23
2017-09-02T22:50:28.157Z,7.60
2017-09-02T22:52:55.676Z,8.77
2017-09-02T22:55:23.326Z,8.10
2017-09-02T22:57:50.930Z,8.20
2017-09-02T23:00:18.453Z,9.87
2017-09-02T23:02:46.259Z,9.40
2017-09-02T23:05:13.815Z,9.17
2017-09-02T23:07:41.482Z,8.97
2017-09-02T23:10:09.029Z,8.40
2017-09-02T23:12:36.586Z,8.47
2017-09-02T23:15:04.085Z,8.80
2017-09-02T23:17:31.635Z,8.60
2017-09-02T23:19:59.246Z,8.30
2017-09-02T23:22:27.044Z,7.73
2017-09-02T23:24:54.612Z,8.60
2017-09-02T23:27:22.276Z,8.83
2017-09-02T23:29:49.820Z,9.10
2017-09-02T23:32:17.469Z,8.00
2017-09-02T23:34:44.981Z,8.57
2017-09-02T23:37:12.527Z,8.37
2017-09-02T23:39:40.046Z,9.23
2017-09-02T23:42:07.694Z,7.97
2017-09-02T23:44:35.547Z,8.27
2017-09-02T23:47:03.146Z,9.10
2017-09-02T23:49:30.717Z,8.83
2017-09-02T23:51:58.326Z,8.30
2017-09-02T23:54:25.936Z,8.10
2017-09-02T23:56:53.434Z,8.63
2017-09-02T23:59:20.958Z,9.10
